SCIE

Concepción/Carriel Sur International Airport

Airport
ICAO code
SCIE
IATA Code
CCP
Summary
ICAO Region
CARSAM
ICAO Territory
Location

Concepción, Bío Bío

Serving
Concepción
Elevation
26 ft
Coordinates
36° 46' 22" S , 73° 3' 47" W
KCC
Csb
Airport BS
Bird Strike
Metar
Observation
SCIE 131500Z 02021KT 9999 BKN007 BKN010 12/11 Q1019
Station
Concepcion
Date/Time
2022-08-13 15:00:00
Wind direction
20°
Wind speed
21 kts
Lowest cloud amount
broken clouds
Temperature
12°C
Dew point
11°C
Humidity
93%
QNH
1019 hPa
Weather condition
n/a

Description

Carriel Sur International Airport is located in Concepción, approximately 500 km southwest of Santiago.

Climatology

Oceanic/Dry-summer subtropical ”Mediterranean" climate (Köppen climate classification Csb) - characterized by warm, dry summers and mild winters.

Runways

Designator Length Width Surface Rops
2/20 2298 45 ASP Yes/Yes

Airport map

Aerial View

SKYbrary Partners:

Safety knowledge contributed by: